Data for 05/20/2008

Time Sea-Level Adjusted Pressure Absolute Pressure Temperature Relative Humidity Dew Point   
(mb) (inHg) (mb) (inHg) (C) (F) (%) (C) (F)
00:05 1018 30.06 848 25.04 12.6 54.7 61 5.4 41.8
00:10 1018 30.06 848 25.04 12.8 55.1 61 5.5 42
00:15 1018 30.06 848 25.04 12.7 54.8 62 5.5 42
00:20 1018 30.06 848 25.04 12.5 54.6 62 5.5 41.9
00:25 1018 30.06 848 25.04 12.5 54.6 62 5.4 41.7
00:30 1018 30.06 847 25.01 12.6 54.6 62 5.4 41.8
00:35 1018 30.06 847 25.01 12.5 54.5 62 5.5 42
00:40 1018 30.06 847 25.01 12.5 54.5 62 5.4 41.7
00:45 1018 30.06 847 25.01 12.6 54.6 62 5.4 41.8
00:50 1018 30.06 847 25.01 12.6 54.6 62 5.5 41.9
00:55 1018 30.06 847 25.01 12.5 54.4 62 5.5 41.9
01:00 1018 30.06 848 25.04 12.2 54 63 5.5 42
01:05 1018 30.06 848 25.04 12 53.7 64 5.4 41.8
01:10 1018 30.06 848 25.04 12 53.7 64 5.5 41.9
01:15 1018 30.06 848 25.04 11.9 53.4 65 5.5 41.9
01:20 1018 30.06 848 25.04 11.7 53.1 65 5.5 41.8
01:25 1018 30.06 848 25.04 11.7 53 65 5.4 41.7
01:30 1018 30.06 848 25.04 11.6 53 65 5.4 41.8
01:35 1018 30.06 848 25.04 11.6 52.9 65 5.4 41.7
01:40 1018 30.06 848 25.04 11.6 52.9 65 5.4 41.7
01:45 1019 30.09 848 25.04 11.6 52.9 66 5.4 41.8
01:50 1019 30.09 848 25.04 11.4 52.6 66 5.4 41.7
01:55 1018 30.06 848 25.04 11.4 52.4 67 5.4 41.7
02:00 1019 30.09 848 25.04 11.3 52.3 67 5.3 41.6
02:05 1019 30.09 848 25.04 11.3 52.3 67 5.3 41.6
02:10 1019 30.09 848 25.04 11.3 52.3 66 5.2 41.4
02:15 1019 30.09 848 25.04 11.4 52.6 65 5.1 41.2
02:20 1019 30.09 848 25.04 11.5 52.7 64 5 41.1
02:25 1019 30.09 848 25.04 11.5 52.7 64 4.9 40.9
02:30 1019 30.09 848 25.04 11.6 52.9 63 4.8 40.7
02:35 1019 30.09 848 25.04 11.5 52.7 63 4.9 40.7
02:40 1018 30.06 848 25.04 11.4 52.4 64 4.8 40.6
02:45 1018 30.06 848 25.04 11 51.9 65 4.8 40.7
02:50 1018 30.06 848 25.04 10.8 51.4 66 4.7 40.5
02:55 1018 30.06 848 25.04 10.6 51.1 67 4.8 40.7
03:00 1018 30.06 848 25.04 10.4 50.8 68 4.8 40.6
03:05 1018 30.06 848 25.04 10.4 50.7 67 4.5 40.1
03:10 1018 30.06 848 25.04 10.4 50.7 66 4.5 40
03:15 1018 30.06 848 25.04 10.5 50.9 65 4.2 39.6
03:20 1018 30.06 848 25.04 10.8 51.4 64 4.3 39.7
03:25 1018 30.06 848 25.04 10.5 50.9 65 4.3 39.7
03:30 1018 30.06 848 25.04 10.3 50.5 66 4.2 39.6
03:35 1018 30.06 848 25.04 10.3 50.5 66 4.2 39.5
03:40 1018 30.06 847 25.01 10.3 50.5 64 3.9 38.9
03:45 1018 30.06 847 25.01 10.4 50.6 63 3.7 38.7
03:50 1018 30.06 847 25.01 10.4 50.8 63 3.7 38.6
03:55 1018 30.06 847 25.01 10.5 50.8 63 3.7 38.7
04:00 1018 30.06 847 25.01 10.4 50.7 62 3.4 38.1
04:05 1018 30.06 847 25.01 10.5 51 60 3.2 37.8
04:10 1018 30.06 847 25.01 10.7 51.2 59 3.1 37.6
04:15 1018 30.06 847 25.01 10.7 51.2 60 3.3 37.9
04:20 1018 30.06 847 25.01 10.6 51.1 60 3.2 37.8
04:25 1018 30.06 847 25.01 10.8 51.5 58 3 37.3
04:30 1018 30.06 847 25.01 11 51.8 57 2.9 37.2
04:35 1018 30.06 847 25.01 11 51.8 58 3.1 37.6
04:40 1018 30.06 847 25.01 10.5 50.9 60 3.1 37.6
04:45 1018 30.06 847 25.01 10 50 62 3.1 37.6
04:50 1018 30.06 847 25.01 9.6 49.4 64 3.2 37.8
04:55 1018 30.06 847 25.01 9.7 49.5 63 3 37.3
05:00 1018 30.06 847 25.01 10.1 50.2 62 3.2 37.8
05:05 1018 30.06 847 25.01 10 49.9 64 3.4 38.2
05:10 1018 30.06 847 25.01 9.8 49.6 65 3.5 38.4
05:15 1018 30.06 847 25.01 9.9 49.8 65 3.5 38.4
05:20 1018 30.06 847 25.01 10 50 64 3.6 38.4
05:25 1018 30.06 847 25.01 10 50 64 3.5 38.4
05:30 1018 30.06 847 25.01 10.1 50.3 64 3.6 38.5
05:35 1018 30.06 847 25.01 9.9 49.9 65 3.6 38.5
05:40 1018 30.06 847 25.01 9.7 49.5 65 3.6 38.4
05:45 1018 30.06 847 25.01 9.7 49.5 65 3.5 38.3
05:50 1018 30.06 847 25.01 9.7 49.5 65 3.5 38.4
05:55 1018 30.06 847 25.01 9.9 49.8 64 3.4 38.1
06:00 1018 30.06 847 25.01 10.2 50.3 63 3.5 38.3
06:05 1018 30.06 847 25.01 10.3 50.5 63 3.5 38.3
06:10 1018 30.06 847 25.01 10.3 50.5 63 3.5 38.3
06:15 1018 30.06 847 25.01 10.2 50.3 62 3.3 38
06:20 1018 30.06 847 25.01 10.2 50.4 62 3.3 38
06:25 1018 30.06 847 25.01 10.3 50.6 62 3.3 38
06:30 1017 30.03 847 25.01 10.4 50.7 62 3.4 38.2
06:35 1017 30.03 847 25.01 10.5 50.9 61 3.4 38.2
06:40 1017 30.03 847 25.01 10.8 51.4 60 3.4 38.1
06:45 1017 30.03 847 25.01 11 51.8 60 3.5 38.4
06:50 1017 30.03 847 25.01 11.1 51.9 60 3.6 38.4
06:55 1017 30.03 847 25.01 11.2 52.2 60 3.8 38.8
07:00 1017 30.03 847 25.01 11.3 52.3 60 3.8 38.9
07:05 1017 30.03 846 24.98 11.5 52.6 59 3.8 38.9
07:10 1017 30.03 846 24.98 11.9 53.4 58 3.9 39
07:15 1017 30.03 846 24.98 12.2 54 56 3.8 38.9
07:20 1017 30.03 846 24.98 12.5 54.6 56 4 39.2
07:25 1017 30.03 846 24.98 12.7 54.9 56 4.2 39.5
07:30 1017 30.03 846 24.98 13.1 55.5 54 4 39.1
07:35 1017 30.03 846 24.98 13.4 56.2 53 4.1 39.3
07:40 1017 30.03 846 24.98 13.8 56.9 51 3.9 39
07:45 1017 30.03 846 24.98 14.1 57.3 51 4.1 39.4
07:50 1017 30.03 846 24.98 14.2 57.6 51 4.4 40
07:55 1017 30.03 846 24.98 14.5 58 49 4 39.2
08:00 1017 30.03 846 24.98 14.9 58.8 49 4.3 39.8
08:05 1017 30.03 846 24.98 15 59.1 49 4.4 39.9
08:10 1017 30.03 846 24.98 15.5 59.9 48 4.6 40.2
08:15 1017 30.03 846 24.98 15.8 60.4 48 4.8 40.6
08:20 1017 30.03 846 24.98 16 60.8 48 5 40.9
08:25 1017 30.03 846 24.98 15.9 60.7 49 5.2 41.4
08:30 1017 30.03 846 24.98 16.1 60.9 49 5.3 41.6
08:35 1017 30.03 846 24.98 16.3 61.4 47 5 41
08:40 1017 30.03 846 24.98 16.8 62.3 44 4.7 40.4
08:45 1017 30.03 846 24.98 17.4 63.3 43 4.8 40.6
08:50 1017 30.03 846 24.98 17.3 63.1 43 4.8 40.6
08:55 1016 30 846 24.98 17.5 63.4 43 4.8 40.6
09:00 1016 30 846 24.98 18 64.4 41 4.6 40.3
09:05 1016 30 846 24.98 18.7 65.7 37 4.1 39.3
09:10 1016 30 845 24.95 19 66.2 38 4.7 40.4
09:15 1016 30 845 24.95 19.6 67.2 35 4 39.2
09:20 1016 30 845 24.95 19.9 67.9 34 3.8 38.8
09:25 1016 30 845 24.95 20.2 68.4 34 3.9 39
09:30 1016 30 845 24.95 20.5 69 33 3.9 38.9
09:35 1016 30 845 24.95 21 69.7 33 4.1 39.3
09:40 1016 30 845 24.95 21.2 70.2 34 4.9 40.9
09:45 1016 30 845 24.95 20.6 69.2 34 4.6 40.2
09:50 1016 30 845 24.95 20.6 69.2 34 4.6 40.2
09:55 1016 30 845 24.95 20.8 69.4 34 4.5 40.1
10:00 1016 30 845 24.95 20.4 68.7 34 4.2 39.6
10:05 1015 29.97 845 24.95 21 69.9 32 4.1 39.3
10:10 1015 29.97 844 24.92 21.4 70.5 31 4 39.1
10:15 1015 29.97 844 24.92 22.1 71.8 30 3.8 38.8
10:20 1015 29.97 844 24.92 21.9 71.4 31 4.1 39.3
10:25 1015 29.97 844 24.92 22.4 72.2 28 3.2 37.7
10:30 1015 29.97 844 24.92 22.6 72.7 23 0.8 33.4
10:35 1015 29.97 844 24.92 23 73.3 22 0.5 32.9
10:40 1015 29.97 844 24.92 23.4 74.2 21 -0.2 31.6
10:45 1014 29.94 844 24.92 23.6 74.5 21 -0 32
10:50 1014 29.94 844 24.92 23.5 74.3 21 -0 32
10:55 1014 29.94 843 24.89 23.7 74.7 19 -1.2 29.8
11:00 1014 29.94 843 24.89 24.3 75.7 20 0.3 32.6
11:05 1014 29.94 843 24.89 24.1 75.3 22 1.3 34.4
11:10 1014 29.94 843 24.89 24.2 75.6 22 1.2 34.2
11:15 1014 29.94 843 24.89 24.3 75.7 20 0.4 32.7
11:20 1014 29.94 843 24.89 24.2 75.6 21 0.6 33.1
11:25 1014 29.94 843 24.89 24.3 75.7 21 0.8 33.4
11:30 1014 29.94 843 24.89 24.2 75.5 21 0.9 33.6
11:35 1013 29.91 843 24.89 24.2 75.6 21 0.6 33
11:40 1013 29.91 843 24.89 25 76.9 20 0.4 32.8
11:45 1013 29.91 843 24.89 24.9 76.7 20 0.5 32.9
11:50 1013 29.91 842 24.86 24.7 76.4 20 0.7 33.3
11:55 1013 29.91 842 24.86 24.8 76.6 20 0.6 33
12:00 1013 29.91 842 24.86 24.9 76.7 20 0.5 32.9
12:05 1013 29.91 842 24.86 25 77 20 0.8 33.5
12:10 1013 29.91 842 24.86 25.1 77.1 19 0.1 32.1
12:15 1013 29.91 842 24.86 24.7 76.5 19 -0.2 31.6
12:20 1013 29.91 842 24.86 24.7 76.4 19 -0 31.9
12:25 1013 29.91 842 24.86 24.8 76.6 20 0.5 33
12:30 1013 29.91 842 24.86 24.8 76.7 20 0.7 33.2
12:35 1013 29.91 842 24.86 25 77 20 0.4 32.8
12:40 1013 29.91 842 24.86 25.4 77.8 19 0.6 33.1
12:45 1012 29.88 842 24.86 25.8 78.4 19 1 33.7
12:50 1012 29.88 842 24.86 25.8 78.5 19 1 33.8
12:55 1012 29.88 841 24.83 25.4 77.8 20 0.8 33.5
13:00 1012 29.88 841 24.83 25.3 77.5 20 1.2 34.1
13:05 1012 29.88 841 24.83 25.1 77.1 21 1.2 34.1
13:10 1012 29.88 841 24.83 25.5 77.9 19 0.4 32.7
13:15 1012 29.88 841 24.83 25.7 78.3 20 1.1 33.9
13:20 1012 29.88 841 24.83 26.2 79.1 19 1.1 34
13:25 1012 29.88 841 24.83 26.4 79.5 18 0.6 33.1
13:30 1011 29.85 841 24.83 26.5 79.7 19 1.6 34.9
13:35 1011 29.85 841 24.83 26.7 80 18 0.9 33.6
13:40 1011 29.85 841 24.83 26.7 80 19 1.6 34.8
13:45 1011 29.85 841 24.83 26.6 79.9 19 1.1 34
13:50 1011 29.85 840 24.81 26.7 80 21 2.7 36.9
13:55 1011 29.85 840 24.81 26.3 79.3 21 2.3 36.2
14:00 1011 29.85 840 24.81 25.6 78 20 1.2 34.1
14:05 1011 29.85 840 24.81 25.6 78.1 21 1.7 35.1
14:10 1011 29.85 840 24.81 25.5 77.9 21 1.7 35.1
14:15 1011 29.85 840 24.81 25.5 77.9 20 1.4 34.4
14:20 1011 29.85 840 24.81 25.5 77.8 22 2.4 36.3
14:25 1011 29.85 840 24.81 25.4 77.8 21 1.8 35.2
14:30 1011 29.85 840 24.81 25.4 77.8 22 2.1 35.9
14:35 1011 29.85 840 24.81 25.6 78 19 0.6 33.2
14:40 1010 29.83 840 24.81 25.2 77.4 18 -0.4 31.3
14:45 1010 29.83 840 24.81 25.1 77.2 19 0.4 32.6
14:50 1010 29.83 840 24.81 25.1 77.2 18 -0.8 30.6
14:55 1010 29.83 839 24.78 25.3 77.6 17 -0.9 30.3
15:00 1010 29.83 839 24.78 25.6 78.1 17 -0.8 30.5
15:05 1010 29.83 839 24.78 25.5 77.8 16 -2 28.3
15:10 1010 29.83 839 24.78 25.5 77.9 16 -2 28.4
15:15 1010 29.83 839 24.78 25.4 77.8 16 -2.1 28.3
15:20 1010 29.83 839 24.78 25.8 78.5 15 -2.9 26.8
15:25 1010 29.83 839 24.78 25.6 78 15 -2.3 27.8
15:30 1010 29.83 839 24.78 25.8 78.5 15 -2.3 27.9
15:35 1009 29.8 839 24.78 26 78.8 15 -2.1 28.2
15:40 1009 29.8 838 24.75 25.9 78.6 15 -2.8 26.9
15:45 1009 29.8 838 24.75 25.8 78.5 15 -2.5 27.5
15:50 1009 29.8 838 24.75 25.7 78.3 17 -0.6 31
15:55 1009 29.8 838 24.75 25.9 78.6 15 -2.2 28
16:00 1009 29.8 838 24.75 25.7 78.2 15 -2.3 27.8
16:05 1009 29.8 838 24.75 25.8 78.4 16 -1.8 28.7
16:10 1008 29.77 838 24.75 26.1 79.1 15 -2 28.4
16:15 1008 29.77 838 24.75 26.3 79.3 16 -1.6 29.1
16:20 1008 29.77 837 24.72 26.6 79.8 16 -1.1 30.1
16:25 1008 29.77 837 24.72 27 80.5 18 1.1 34
16:30 1008 29.77 837 24.72 27 80.6 15 -1.2 29.8
16:35 1008 29.77 837 24.72 26.9 80.4 15 -1.6 29.1
16:40 1007 29.74 837 24.72 26.8 80.3 16 -1.1 30
16:45 1007 29.74 836 24.69 26.5 79.8 18 0.3 32.6
16:50 1007 29.74 836 24.69 26.8 80.3 16 -1.2 29.9
16:55 1007 29.74 836 24.69 27 80.7 18 0.9 33.5
17:00 1007 29.74 836 24.69 27.4 81.2 15 -1.7 28.9
17:05 1007 29.74 836 24.69 27.5 81.5 13 -3.5 25.7
17:10 1007 29.74 836 24.69 27.2 81 12 -4.7 23.5
17:15 1007 29.74 836 24.69 26.6 79.9 13 -3.6 25.5
17:20 1006 29.71 836 24.69 26.3 79.4 14 -3.5 25.7
17:25 1006 29.71 836 24.69 26.1 79 14 -3.7 25.4
17:30 1006 29.71 835 24.66 26 78.7 14 -3.3 26.1
17:35 1006 29.71 835 24.66 25.8 78.4 14 -3.2 26.3
17:40 1006 29.71 835 24.66 25.8 78.4 14 -3.5 25.8
17:45 1006 29.71 835 24.66 25.8 78.5 14 -3.5 25.7
17:50 1006 29.71 835 24.66 25.8 78.4 14 -3.7 25.4
17:55 1006 29.71 835 24.66 25.9 78.5 15 -2.9 26.8
18:00 1006 29.71 835 24.66 25.9 78.6 14 -3 26.7
18:05 1006 29.71 835 24.66 25.9 78.7 15 -2.8 27
18:10 1005 29.68 835 24.66 25.9 78.6 15 -2.7 27.2
18:15 1005 29.68 835 24.66 25.8 78.5 15 -2.1 28.2
18:20 1005 29.68 834 24.63 25.8 78.5 16 -1.6 29.1
18:25 1005 29.68 834 24.63 25.9 78.5 16 -2 28.3
18:30 1005 29.68 834 24.63 25.8 78.5 16 -1.9 28.5
18:35 1005 29.68 834 24.63 25.6 78.1 15 -2.4 27.7
18:40 1005 29.68 834 24.63 25.6 78 16 -2.1 28.2
18:45 1005 29.68 834 24.63 25.4 77.6 18 -0.8 30.6
18:50 1005 29.68 834 24.63 25.1 77.2 16 -2.2 28
18:55 1005 29.68 834 24.63 25.1 77.3 16 -2.1 28.2
19:00 1005 29.68 834 24.63 25 77 16 -2.2 28
19:05 1005 29.68 834 24.63 24.9 76.9 17 -1.3 29.7
19:10 1005 29.68 834 24.63 24.8 76.6 19 -0.3 31.4
19:15 1005 29.68 834 24.63 24.8 76.6 18 -0.7 30.7
19:20 1005 29.68 834 24.63 24.7 76.4 19 -0.5 31.2
19:25 1005 29.68 835 24.66 24.7 76.4 19 -0.3 31.5
19:30 1006 29.71 835 24.66 24.3 75.8 22 1.3 34.3
19:35 1006 29.71 835 24.66 23.2 73.8 26 2.8 37.1
19:40 1006 29.71 835 24.66 21.9 71.4 31 4 39.1
19:45 1006 29.71 835 24.66 20.8 69.4 32 3.5 38.3
19:50 1006 29.71 835 24.66 20.5 68.9 33 3.9 39
19:55 1005 29.68 834 24.63 20.4 68.6 32 3.4 38.2
20:00 1005 29.68 834 24.63 20.2 68.3 33 3.5 38.4
20:05 1005 29.68 834 24.63 20 68.1 32 3 37.3
20:10 1005 29.68 834 24.63 20.2 68.3 32 2.9 37.2
20:15 1005 29.68 834 24.63 20.1 68.2 32 3 37.4
20:20 1005 29.68 834 24.63 20 68 33 3.2 37.8
20:25 1005 29.68 834 24.63 19.9 67.8 32 3 37.3
20:30 1005 29.68 834 24.63 19.8 67.7 33 3.1 37.6
20:35 1005 29.68 834 24.63 19.7 67.5 32 2.6 36.6
20:40 1004 29.65 834 24.63 19.9 67.8 31 2.6 36.7
20:45 1004 29.65 834 24.63 19.9 67.8 31 2.6 36.6
20:50 1005 29.68 834 24.63 19.9 67.8 33 3.1 37.6
20:55 1005 29.68 834 24.63 19.3 66.7 35 3.7 38.7
21:00 1005 29.68 834 24.63 19 66.2 34 3 37.4
21:05 1004 29.65 833 24.6 19.3 66.8 33 2.7 36.9
21:10 1004 29.65 833 24.6 19.6 67.2 33 2.9 37.2
21:15 1004 29.65 833 24.6 19.5 67.2 34 3.6 38.5
21:20 1004 29.65 833 24.6 19.7 67.4 33 3.2 37.7
21:25 1004 29.65 833 24.6 19.6 67.3 34 3.5 38.3
21:30 1003 29.62 833 24.6 20 67.9 31 2.6 36.6
21:35 1003 29.62 833 24.6 20.2 68.4 32 3.1 37.5
21:40 1004 29.65 833 24.6 20 68 33 3.3 37.9
21:45 1004 29.65 833 24.6 19.9 67.9 32 2.9 37.2
21:50 1004 29.65 833 24.6 20.5 68.8 30 2.5 36.5
21:55 1004 29.65 833 24.6 20.6 69 30 2.4 36.4
22:00 1003 29.62 833 24.6 20.9 69.6 28 1.8 35.3
22:05 1003 29.62 833 24.6 21.3 70.3 28 2.3 36.2
22:10 1003 29.62 833 24.6 21.1 69.9 28 2.2 35.9
22:15 1003 29.62 833 24.6 20.9 69.7 29 2.2 35.9
22:20 1003 29.62 833 24.6 21 69.7 29 2.2 36
22:25 1003 29.62 833 24.6 20.8 69.5 29 2.3 36.1
22:30 1004 29.65 833 24.6 20.7 69.2 30 2.6 36.7
22:35 1004 29.65 833 24.6 20.2 68.4 31 2.9 37.2
22:40 1004 29.65 833 24.6 20.1 68.1 31 2.6 36.7
22:45 1003 29.62 833 24.6 20.4 68.6 31 2.9 37.2
22:50 1003 29.62 832 24.57 20.5 69 31 3.1 37.6
22:55 1003 29.62 832 24.57 20.4 68.7 32 3.3 37.9
23:00 1003 29.62 832 24.57 20.2 68.3 32 3.1 37.6
23:05 1003 29.62 832 24.57 20.2 68.3 32 3.3 37.9
23:10 1002 29.59 831 24.54 20 67.9 33 3.5 38.4
23:15 1002 29.59 831 24.54 19.7 67.4 34 3.5 38.2
23:20 1002 29.59 831 24.54 19.6 67.3 33 3.1 37.5
23:25 1002 29.59 831 24.54 19.7 67.4 33 3 37.4
23:30 1002 29.59 831 24.54 19.6 67.3 31 2.2 36
23:35 1002 29.59 831 24.54 19.3 66.8 32 2.5 36.5
23:40 1002 29.59 832 24.57 19 66.2 31 1.6 34.9
23:45 1002 29.59 832 24.57 19.1 66.4 33 2.4 36.3
23:50 1002 29.59 831 24.54 18.7 65.6 34 2.8 37.1
23:55 1002 29.59 832 24.57 18.4 65 34 2.5 36.5
24:00 1003 29.62 832 24.57 18.4 65.1 35 2.6 36.7